sensor_id;sensor_type;location;lat;lon;timestamp;temperature;humidity
83142;DHT22;75194;51.180;5.972;2024-02-23T00:00:29;6.30;74.30
83142;DHT22;75194;51.180;5.972;2024-02-23T00:02:56;6.10;72.90
83142;DHT22;75194;51.180;5.972;2024-02-23T00:05:24;6.00;73.80
83142;DHT22;75194;51.180;5.972;2024-02-23T00:07:49;6.00;74.70
83142;DHT22;75194;51.180;5.972;2024-02-23T00:10:15;6.10;75.00
83142;DHT22;75194;51.180;5.972;2024-02-23T00:12:42;6.00;74.60
83142;DHT22;75194;51.180;5.972;2024-02-23T00:15:09;5.90;74.40
83142;DHT22;75194;51.180;5.972;2024-02-23T00:17:35;5.90;73.70
83142;DHT22;75194;51.180;5.972;2024-02-23T00:20:01;5.90;74.60
83142;DHT22;75194;51.180;5.972;2024-02-23T00:22:29;6.00;73.60
83142;DHT22;75194;51.180;5.972;2024-02-23T00:24:55;6.00;73.20
83142;DHT22;75194;51.180;5.972;2024-02-23T00:27:20;5.90;73.20
83142;DHT22;75194;51.180;5.972;2024-02-23T00:29:46;6.00;73.00
83142;DHT22;75194;51.180;5.972;2024-02-23T00:32:12;6.00;72.70
83142;DHT22;75194;51.180;5.972;2024-02-23T00:34:38;6.00;73.40
83142;DHT22;75194;51.180;5.972;2024-02-23T00:37:07;5.90;73.00
83142;DHT22;75194;51.180;5.972;2024-02-23T00:39:33;6.00;72.70
83142;DHT22;75194;51.180;5.972;2024-02-23T00:42:01;5.90;72.80
83142;DHT22;75194;51.180;5.972;2024-02-23T00:44:26;6.00;72.50
83142;DHT22;75194;51.180;5.972;2024-02-23T00:46:52;6.00;73.00
83142;DHT22;75194;51.180;5.972;2024-02-23T00:49:18;6.00;72.20
83142;DHT22;75194;51.180;5.972;2024-02-23T00:51:43;6.10;72.00
83142;DHT22;75194;51.180;5.972;2024-02-23T00:54:09;6.00;71.60
83142;DHT22;75194;51.180;5.972;2024-02-23T00:56:35;6.00;72.20
83142;DHT22;75194;51.180;5.972;2024-02-23T00:59:01;6.00;72.30
83142;DHT22;75194;51.180;5.972;2024-02-23T01:01:27;6.00;72.10
83142;DHT22;75194;51.180;5.972;2024-02-23T01:03:54;6.10;72.00
83142;DHT22;75194;51.180;5.972;2024-02-23T01:06:19;6.00;72.20
83142;DHT22;75194;51.180;5.972;2024-02-23T01:08:45;6.00;72.00
83142;DHT22;75194;51.180;5.972;2024-02-23T01:11:11;5.90;72.10
83142;DHT22;75194;51.180;5.972;2024-02-23T01:13:36;5.90;72.20
83142;DHT22;75194;51.180;5.972;2024-02-23T01:16:03;5.90;72.50
83142;DHT22;75194;51.180;5.972;2024-02-23T01:18:29;5.90;72.90
83142;DHT22;75194;51.180;5.972;2024-02-23T01:20:56;5.80;73.30
83142;DHT22;75194;51.180;5.972;2024-02-23T01:23:23;5.80;73.60
83142;DHT22;75194;51.180;5.972;2024-02-23T01:25:51;5.70;73.60
83142;DHT22;75194;51.180;5.972;2024-02-23T01:28:17;5.80;73.80
83142;DHT22;75194;51.180;5.972;2024-02-23T01:30:43;5.70;73.50
83142;DHT22;75194;51.180;5.972;2024-02-23T01:33:08;5.70;73.20
83142;DHT22;75194;51.180;5.972;2024-02-23T01:35:34;5.70;73.60
83142;DHT22;75194;51.180;5.972;2024-02-23T01:38:02;5.70;73.50
83142;DHT22;75194;51.180;5.972;2024-02-23T01:40:31;5.70;73.70
83142;DHT22;75194;51.180;5.972;2024-02-23T01:43:05;5.70;73.40
83142;DHT22;75194;51.180;5.972;2024-02-23T01:45:31;5.70;73.40
83142;DHT22;75194;51.180;5.972;2024-02-23T01:48:16;5.60;73.20
83142;DHT22;75194;51.180;5.972;2024-02-23T01:50:42;5.50;73.80
83142;DHT22;75194;51.180;5.972;2024-02-23T01:53:10;5.50;73.60
83142;DHT22;75194;51.180;5.972;2024-02-23T02:11:13;5.40;73.80
83142;DHT22;75194;51.180;5.972;2024-02-23T02:17:21;5.40;73.70
83142;DHT22;75194;51.180;5.972;2024-02-23T02:20:28;5.50;73.70
83142;DHT22;75194;51.180;5.972;2024-02-23T02:22:57;5.50;73.00
83142;DHT22;75194;51.180;5.972;2024-02-23T02:25:23;5.40;73.00
83142;DHT22;75194;51.180;5.972;2024-02-23T02:28:10;5.40;73.10
83142;DHT22;75194;51.180;5.972;2024-02-23T02:33:32;5.40;73.40
83142;DHT22;75194;51.180;5.972;2024-02-23T02:36:16;5.50;73.20
83142;DHT22;75194;51.180;5.972;2024-02-23T02:38:41;5.50;73.20
83142;DHT22;75194;51.180;5.972;2024-02-23T02:41:08;5.50;72.80
83142;DHT22;75194;51.180;5.972;2024-02-23T02:43:57;5.50;73.00
83142;DHT22;75194;51.180;5.972;2024-02-23T02:46:22;5.50;72.90
83142;DHT22;75194;51.180;5.972;2024-02-23T02:48:48;5.50;72.80
83142;DHT22;75194;51.180;5.972;2024-02-23T02:51:14;5.50;72.90
83142;DHT22;75194;51.180;5.972;2024-02-23T02:53:39;5.50;72.50
83142;DHT22;75194;51.180;5.972;2024-02-23T02:56:06;5.50;73.00
83142;DHT22;75194;51.180;5.972;2024-02-23T02:58:32;5.50;73.00
83142;DHT22;75194;51.180;5.972;2024-02-23T03:00:58;5.50;72.60
83142;DHT22;75194;51.180;5.972;2024-02-23T03:03:24;5.50;72.20
83142;DHT22;75194;51.180;5.972;2024-02-23T03:05:49;5.50;72.30
83142;DHT22;75194;51.180;5.972;2024-02-23T03:08:15;5.50;72.60
83142;DHT22;75194;51.180;5.972;2024-02-23T03:10:41;5.50;72.50
83142;DHT22;75194;51.180;5.972;2024-02-23T03:13:09;5.50;72.60
83142;DHT22;75194;51.180;5.972;2024-02-23T03:15:58;5.50;72.10
83142;DHT22;75194;51.180;5.972;2024-02-23T03:18:29;5.60;72.20
83142;DHT22;75194;51.180;5.972;2024-02-23T03:21:04;5.60;72.10
83142;DHT22;75194;51.180;5.972;2024-02-23T03:23:30;5.60;72.00
83142;DHT22;75194;51.180;5.972;2024-02-23T03:26:23;5.60;71.70
83142;DHT22;75194;51.180;5.972;2024-02-23T03:28:48;5.70;71.10
83142;DHT22;75194;51.180;5.972;2024-02-23T03:31:32;5.60;70.90
83142;DHT22;75194;51.180;5.972;2024-02-23T03:34:07;5.60;71.30
83142;DHT22;75194;51.180;5.972;2024-02-23T03:36:34;5.60;70.90
83142;DHT22;75194;51.180;5.972;2024-02-23T03:39:00;5.70;71.00
83142;DHT22;75194;51.180;5.972;2024-02-23T03:41:26;5.70;71.30
83142;DHT22;75194;51.180;5.972;2024-02-23T03:43:58;5.70;71.30
83142;DHT22;75194;51.180;5.972;2024-02-23T03:49:01;5.70;71.20
83142;DHT22;75194;51.180;5.972;2024-02-23T03:51:47;5.70;71.10
83142;DHT22;75194;51.180;5.972;2024-02-23T03:54:13;5.70;71.10
83142;DHT22;75194;51.180;5.972;2024-02-23T03:56:40;5.70;71.10
83142;DHT22;75194;51.180;5.972;2024-02-23T03:59:06;5.70;71.30
83142;DHT22;75194;51.180;5.972;2024-02-23T04:01:35;5.70;71.50
83142;DHT22;75194;51.180;5.972;2024-02-23T04:04:21;5.60;71.80
83142;DHT22;75194;51.180;5.972;2024-02-23T04:06:47;5.60;72.20
83142;DHT22;75194;51.180;5.972;2024-02-23T04:09:13;5.50;72.30
83142;DHT22;75194;51.180;5.972;2024-02-23T04:11:39;5.60;72.10
83142;DHT22;75194;51.180;5.972;2024-02-23T04:14:05;5.50;71.60
83142;DHT22;75194;51.180;5.972;2024-02-23T04:16:31;5.50;71.80
83142;DHT22;75194;51.180;5.972;2024-02-23T04:18:57;5.60;71.50
83142;DHT22;75194;51.180;5.972;2024-02-23T04:21:23;5.60;71.60
83142;DHT22;75194;51.180;5.972;2024-02-23T04:23:48;5.60;71.60
83142;DHT22;75194;51.180;5.972;2024-02-23T04:26:14;5.70;71.20
83142;DHT22;75194;51.180;5.972;2024-02-23T04:28:49;5.70;71.30
83142;DHT22;75194;51.180;5.972;2024-02-23T04:31:44;5.80;70.80
83142;DHT22;75194;51.180;5.972;2024-02-23T04:34:15;5.80;70.40
83142;DHT22;75194;51.180;5.972;2024-02-23T04:36:58;5.80;70.60
83142;DHT22;75194;51.180;5.972;2024-02-23T04:39:36;5.80;70.30
83142;DHT22;75194;51.180;5.972;2024-02-23T04:42:04;5.80;69.90
83142;DHT22;75194;51.180;5.972;2024-02-23T04:44:51;5.80;69.60
83142;DHT22;75194;51.180;5.972;2024-02-23T04:47:28;5.80;69.80
83142;DHT22;75194;51.180;5.972;2024-02-23T04:50:02;5.70;70.30
83142;DHT22;75194;51.180;5.972;2024-02-23T04:52:47;5.70;70.30
83142;DHT22;75194;51.180;5.972;2024-02-23T04:58:19;5.80;70.00
83142;DHT22;75194;51.180;5.972;2024-02-23T05:01:05;5.70;70.00
83142;DHT22;75194;51.180;5.972;2024-02-23T05:03:34;5.80;69.70
83142;DHT22;75194;51.180;5.972;2024-02-23T05:06:26;5.80;70.30
83142;DHT22;75194;51.180;5.972;2024-02-23T05:08:51;5.80;70.20
83142;DHT22;75194;51.180;5.972;2024-02-23T05:11:17;5.80;69.90
83142;DHT22;75194;51.180;5.972;2024-02-23T05:13:59;5.90;70.00
83142;DHT22;75194;51.180;5.972;2024-02-23T05:16:25;5.90;69.60
83142;DHT22;75194;51.180;5.972;2024-02-23T05:18:51;5.90;69.80
83142;DHT22;75194;51.180;5.972;2024-02-23T05:21:17;5.90;69.90
83142;DHT22;75194;51.180;5.972;2024-02-23T05:23:42;5.90;69.20
83142;DHT22;75194;51.180;5.972;2024-02-23T05:29:12;6.00;68.60
83142;DHT22;75194;51.180;5.972;2024-02-23T05:31:52;6.00;69.00
83142;DHT22;75194;51.180;5.972;2024-02-23T05:34:18;5.90;68.80
83142;DHT22;75194;51.180;5.972;2024-02-23T05:36:45;6.00;68.90
83142;DHT22;75194;51.180;5.972;2024-02-23T05:41:54;5.90;68.80
83142;DHT22;75194;51.180;5.972;2024-02-23T05:44:20;6.00;68.50
83142;DHT22;75194;51.180;5.972;2024-02-23T05:46:46;6.00;69.20
83142;DHT22;75194;51.180;5.972;2024-02-23T05:49:12;5.90;69.30
83142;DHT22;75194;51.180;5.972;2024-02-23T05:51:37;5.90;69.40
83142;DHT22;75194;51.180;5.972;2024-02-23T05:54:03;5.90;69.10
83142;DHT22;75194;51.180;5.972;2024-02-23T05:56:29;6.00;69.40
83142;DHT22;75194;51.180;5.972;2024-02-23T05:58:55;6.00;68.70
83142;DHT22;75194;51.180;5.972;2024-02-23T06:01:21;6.00;68.50
83142;DHT22;75194;51.180;5.972;2024-02-23T06:03:46;6.00;68.80
83142;DHT22;75194;51.180;5.972;2024-02-23T06:06:12;6.00;68.90
83142;DHT22;75194;51.180;5.972;2024-02-23T06:08:38;6.00;68.40
83142;DHT22;75194;51.180;5.972;2024-02-23T06:11:04;6.00;68.90
83142;DHT22;75194;51.180;5.972;2024-02-23T06:13:30;6.10;68.60
83142;DHT22;75194;51.180;5.972;2024-02-23T06:15:56;6.00;68.60
83142;DHT22;75194;51.180;5.972;2024-02-23T06:18:22;6.00;69.00
83142;DHT22;75194;51.180;5.972;2024-02-23T06:20:50;6.00;68.80
83142;DHT22;75194;51.180;5.972;2024-02-23T06:23:16;6.00;68.60
83142;DHT22;75194;51.180;5.972;2024-02-23T06:25:42;6.00;69.10
83142;DHT22;75194;51.180;5.972;2024-02-23T06:28:09;6.00;68.80
83142;DHT22;75194;51.180;5.972;2024-02-23T06:30:36;6.00;68.90
83142;DHT22;75194;51.180;5.972;2024-02-23T06:33:02;6.00;68.90
83142;DHT22;75194;51.180;5.972;2024-02-23T06:35:34;6.00;69.10
83142;DHT22;75194;51.180;5.972;2024-02-23T06:37:59;6.00;69.40
83142;DHT22;75194;51.180;5.972;2024-02-23T06:40:25;6.00;68.70
83142;DHT22;75194;51.180;5.972;2024-02-23T06:42:51;6.00;69.00
83142;DHT22;75194;51.180;5.972;2024-02-23T06:45:17;6.10;69.10
83142;DHT22;75194;51.180;5.972;2024-02-23T06:47:44;6.10;68.80
83142;DHT22;75194;51.180;5.972;2024-02-23T06:50:10;6.10;68.40
83142;DHT22;75194;51.180;5.972;2024-02-23T06:52:36;6.10;68.30
83142;DHT22;75194;51.180;5.972;2024-02-23T06:55:03;6.10;68.20
83142;DHT22;75194;51.180;5.972;2024-02-23T06:57:29;6.10;68.40
83142;DHT22;75194;51.180;5.972;2024-02-23T06:59:56;6.10;68.40
83142;DHT22;75194;51.180;5.972;2024-02-23T07:02:25;6.10;68.70
83142;DHT22;75194;51.180;5.972;2024-02-23T07:04:50;6.00;68.00
83142;DHT22;75194;51.180;5.972;2024-02-23T07:07:16;6.00;68.50
83142;DHT22;75194;51.180;5.972;2024-02-23T07:09:42;6.00;68.50
83142;DHT22;75194;51.180;5.972;2024-02-23T07:12:07;6.10;68.40
83142;DHT22;75194;51.180;5.972;2024-02-23T07:14:45;6.00;68.50
83142;DHT22;75194;51.180;5.972;2024-02-23T07:17:10;6.10;68.40
83142;DHT22;75194;51.180;5.972;2024-02-23T07:19:39;6.10;68.60
83142;DHT22;75194;51.180;5.972;2024-02-23T07:22:05;6.30;68.20
83142;DHT22;75194;51.180;5.972;2024-02-23T07:24:30;6.50;67.30
83142;DHT22;75194;51.180;5.972;2024-02-23T07:26:59;6.30;67.90
83142;DHT22;75194;51.180;5.972;2024-02-23T07:29:25;6.30;67.90
83142;DHT22;75194;51.180;5.972;2024-02-23T07:31:50;6.30;68.40
83142;DHT22;75194;51.180;5.972;2024-02-23T07:34:16;6.30;68.10
83142;DHT22;75194;51.180;5.972;2024-02-23T07:36:42;6.40;67.90
83142;DHT22;75194;51.180;5.972;2024-02-23T07:39:08;6.40;67.50
83142;DHT22;75194;51.180;5.972;2024-02-23T07:41:34;6.50;68.00
83142;DHT22;75194;51.180;5.972;2024-02-23T07:44:00;6.50;68.00
83142;DHT22;75194;51.180;5.972;2024-02-23T07:46:28;6.70;67.30
83142;DHT22;75194;51.180;5.972;2024-02-23T07:48:54;6.70;67.30
83142;DHT22;75194;51.180;5.972;2024-02-23T07:51:20;6.70;67.20
83142;DHT22;75194;51.180;5.972;2024-02-23T07:53:45;6.70;67.30
83142;DHT22;75194;51.180;5.972;2024-02-23T07:56:14;6.70;67.30
83142;DHT22;75194;51.180;5.972;2024-02-23T07:58:40;6.70;67.00
83142;DHT22;75194;51.180;5.972;2024-02-23T08:01:05;6.80;67.20
83142;DHT22;75194;51.180;5.972;2024-02-23T08:03:37;6.80;67.10
83142;DHT22;75194;51.180;5.972;2024-02-23T08:06:06;7.00;67.10
83142;DHT22;75194;51.180;5.972;2024-02-23T08:08:32;7.00;66.80
83142;DHT22;75194;51.180;5.972;2024-02-23T08:11:03;6.80;67.50
83142;DHT22;75194;51.180;5.972;2024-02-23T08:13:29;6.80;67.20
83142;DHT22;75194;51.180;5.972;2024-02-23T08:15:55;6.80;67.40
83142;DHT22;75194;51.180;5.972;2024-02-23T08:18:23;6.80;67.50
83142;DHT22;75194;51.180;5.972;2024-02-23T08:20:49;7.10;67.50
83142;DHT22;75194;51.180;5.972;2024-02-23T08:23:15;7.10;67.20
83142;DHT22;75194;51.180;5.972;2024-02-23T08:25:41;6.90;67.50
83142;DHT22;75194;51.180;5.972;2024-02-23T08:28:08;6.90;67.10
83142;DHT22;75194;51.180;5.972;2024-02-23T08:30:34;6.80;67.30
83142;DHT22;75194;51.180;5.972;2024-02-23T08:33:00;6.90;66.80
83142;DHT22;75194;51.180;5.972;2024-02-23T08:35:26;6.80;66.50
83142;DHT22;75194;51.180;5.972;2024-02-23T08:37:52;6.80;67.00
83142;DHT22;75194;51.180;5.972;2024-02-23T08:40:17;6.70;67.40
83142;DHT22;75194;51.180;5.972;2024-02-23T08:42:43;6.70;67.60
83142;DHT22;75194;51.180;5.972;2024-02-23T08:45:09;6.60;67.40
83142;DHT22;75194;51.180;5.972;2024-02-23T08:47:38;6.70;67.90
83142;DHT22;75194;51.180;5.972;2024-02-23T08:50:04;6.80;68.00
83142;DHT22;75194;51.180;5.972;2024-02-23T08:52:29;6.70;67.40
83142;DHT22;75194;51.180;5.972;2024-02-23T08:54:55;6.80;66.90
83142;DHT22;75194;51.180;5.972;2024-02-23T08:57:21;6.70;67.60
83142;DHT22;75194;51.180;5.972;2024-02-23T08:59:51;6.80;67.20
83142;DHT22;75194;51.180;5.972;2024-02-23T09:02:17;6.80;67.70
83142;DHT22;75194;51.180;5.972;2024-02-23T09:04:42;6.80;67.20
83142;DHT22;75194;51.180;5.972;2024-02-23T09:07:10;6.90;67.10
83142;DHT22;75194;51.180;5.972;2024-02-23T09:09:36;6.80;67.30
83142;DHT22;75194;51.180;5.972;2024-02-23T09:12:02;7.00;67.10
83142;DHT22;75194;51.180;5.972;2024-02-23T09:14:27;7.10;66.60
83142;DHT22;75194;51.180;5.972;2024-02-23T09:16:53;7.20;67.40
83142;DHT22;75194;51.180;5.972;2024-02-23T09:19:19;7.40;65.50
83142;DHT22;75194;51.180;5.972;2024-02-23T09:21:46;7.30;65.90
83142;DHT22;75194;51.180;5.972;2024-02-23T09:24:12;7.30;65.10
83142;DHT22;75194;51.180;5.972;2024-02-23T09:26:38;7.70;64.50
83142;DHT22;75194;51.180;5.972;2024-02-23T09:29:05;7.60;64.60
83142;DHT22;75194;51.180;5.972;2024-02-23T09:31:40;7.50;64.20
83142;DHT22;75194;51.180;5.972;2024-02-23T09:34:05;7.50;64.30
83142;DHT22;75194;51.180;5.972;2024-02-23T09:36:31;7.40;64.70
83142;DHT22;75194;51.180;5.972;2024-02-23T09:39:06;7.30;64.10
83142;DHT22;75194;51.180;5.972;2024-02-23T09:41:32;7.40;65.50
83142;DHT22;75194;51.180;5.972;2024-02-23T09:44:01;7.30;65.20
83142;DHT22;75194;51.180;5.972;2024-02-23T09:46:27;7.30;65.30
83142;DHT22;75194;51.180;5.972;2024-02-23T09:48:55;7.30;65.00
83142;DHT22;75194;51.180;5.972;2024-02-23T09:51:21;7.20;64.50
83142;DHT22;75194;51.180;5.972;2024-02-23T09:53:49;7.30;64.90
83142;DHT22;75194;51.180;5.972;2024-02-23T09:56:17;7.30;65.30
83142;DHT22;75194;51.180;5.972;2024-02-23T09:58:47;7.40;64.80
83142;DHT22;75194;51.180;5.972;2024-02-23T10:01:17;7.50;64.70
83142;DHT22;75194;51.180;5.972;2024-02-23T10:03:46;7.60;63.80
83142;DHT22;75194;51.180;5.972;2024-02-23T10:06:12;7.80;62.70
83142;DHT22;75194;51.180;5.972;2024-02-23T10:08:37;7.70;62.70
83142;DHT22;75194;51.180;5.972;2024-02-23T10:11:03;7.70;62.40
83142;DHT22;75194;51.180;5.972;2024-02-23T10:13:29;7.70;62.50
83142;DHT22;75194;51.180;5.972;2024-02-23T10:15:55;7.80;62.10
83142;DHT22;75194;51.180;5.972;2024-02-23T10:18:22;7.80;61.70
83142;DHT22;75194;51.180;5.972;2024-02-23T10:20:49;7.90;61.50
83142;DHT22;75194;51.180;5.972;2024-02-23T10:23:16;7.90;61.80
83142;DHT22;75194;51.180;5.972;2024-02-23T10:25:45;7.90;61.60
83142;DHT22;75194;51.180;5.972;2024-02-23T10:28:11;7.80;61.70
83142;DHT22;75194;51.180;5.972;2024-02-23T10:30:37;7.80;62.80
83142;DHT22;75194;51.180;5.972;2024-02-23T10:33:06;7.70;62.90
83142;DHT22;75194;51.180;5.972;2024-02-23T10:35:32;7.60;63.40
83142;DHT22;75194;51.180;5.972;2024-02-23T10:38:05;7.60;63.40
83142;DHT22;75194;51.180;5.972;2024-02-23T10:40:31;7.60;63.70
83142;DHT22;75194;51.180;5.972;2024-02-23T10:43:02;7.60;62.90
83142;DHT22;75194;51.180;5.972;2024-02-23T10:45:29;7.60;63.40
83142;DHT22;75194;51.180;5.972;2024-02-23T10:47:55;7.60;63.60
83142;DHT22;75194;51.180;5.972;2024-02-23T10:50:23;7.60;63.90
83142;DHT22;75194;51.180;5.972;2024-02-23T10:53:10;7.60;63.90
83142;DHT22;75194;51.180;5.972;2024-02-23T10:55:37;7.60;63.80
83142;DHT22;75194;51.180;5.972;2024-02-23T10:58:09;7.60;64.00
83142;DHT22;75194;51.180;5.972;2024-02-23T11:00:38;7.60;64.10
83142;DHT22;75194;51.180;5.972;2024-02-23T11:03:05;7.60;64.50
83142;DHT22;75194;51.180;5.972;2024-02-23T11:05:33;7.60;64.00
83142;DHT22;75194;51.180;5.972;2024-02-23T11:07:58;7.60;64.20
83142;DHT22;75194;51.180;5.972;2024-02-23T11:10:50;7.60;63.50
83142;DHT22;75194;51.180;5.972;2024-02-23T11:13:19;7.60;63.20
83142;DHT22;75194;51.180;5.972;2024-02-23T11:16:10;7.60;63.30
83142;DHT22;75194;51.180;5.972;2024-02-23T11:18:38;7.60;63.90
83142;DHT22;75194;51.180;5.972;2024-02-23T11:21:05;7.60;64.10
83142;DHT22;75194;51.180;5.972;2024-02-23T11:23:41;7.60;64.50
83142;DHT22;75194;51.180;5.972;2024-02-23T11:26:11;7.60;64.20
83142;DHT22;75194;51.180;5.972;2024-02-23T11:28:51;7.60;64.20
83142;DHT22;75194;51.180;5.972;2024-02-23T11:31:34;7.70;64.30
83142;DHT22;75194;51.180;5.972;2024-02-23T11:34:00;7.80;63.90
83142;DHT22;75194;51.180;5.972;2024-02-23T11:36:32;7.80;63.10
83142;DHT22;75194;51.180;5.972;2024-02-23T11:38:59;7.80;63.00
83142;DHT22;75194;51.180;5.972;2024-02-23T11:41:26;7.80;62.90
83142;DHT22;75194;51.180;5.972;2024-02-23T11:43:56;7.80;62.90
83142;DHT22;75194;51.180;5.972;2024-02-23T11:46:22;7.80;62.80
83142;DHT22;75194;51.180;5.972;2024-02-23T11:48:49;7.80;62.90
83142;DHT22;75194;51.180;5.972;2024-02-23T11:51:22;7.80;62.80
83142;DHT22;75194;51.180;5.972;2024-02-23T11:53:49;7.90;63.20
83142;DHT22;75194;51.180;5.972;2024-02-23T11:56:15;8.00;63.10
83142;DHT22;75194;51.180;5.972;2024-02-23T11:58:42;7.90;62.40
83142;DHT22;75194;51.180;5.972;2024-02-23T12:01:08;8.00;63.00
83142;DHT22;75194;51.180;5.972;2024-02-23T12:03:35;8.00;62.50
83142;DHT22;75194;51.180;5.972;2024-02-23T12:06:01;8.00;63.00
83142;DHT22;75194;51.180;5.972;2024-02-23T12:08:30;8.00;62.90
83142;DHT22;75194;51.180;5.972;2024-02-23T12:10:57;8.00;62.70
83142;DHT22;75194;51.180;5.972;2024-02-23T12:13:26;8.10;63.00
83142;DHT22;75194;51.180;5.972;2024-02-23T12:15:53;8.10;62.80
83142;DHT22;75194;51.180;5.972;2024-02-23T12:18:21;8.10;62.40
83142;DHT22;75194;51.180;5.972;2024-02-23T12:21:08;8.10;61.90
83142;DHT22;75194;51.180;5.972;2024-02-23T12:23:41;8.10;62.50
83142;DHT22;75194;51.180;5.972;2024-02-23T12:26:07;8.10;62.50
83142;DHT22;75194;51.180;5.972;2024-02-23T12:28:33;8.10;62.60
83142;DHT22;75194;51.180;5.972;2024-02-23T12:31:03;8.10;62.60
83142;DHT22;75194;51.180;5.972;2024-02-23T12:33:30;8.10;62.70
83142;DHT22;75194;51.180;5.972;2024-02-23T12:35:58;8.00;62.60
83142;DHT22;75194;51.180;5.972;2024-02-23T12:38:24;8.00;63.20
83142;DHT22;75194;51.180;5.972;2024-02-23T12:40:50;8.10;63.50
83142;DHT22;75194;51.180;5.972;2024-02-23T12:43:17;8.00;63.00
83142;DHT22;75194;51.180;5.972;2024-02-23T12:45:42;8.00;63.20
83142;DHT22;75194;51.180;5.972;2024-02-23T12:48:10;8.10;63.70
83142;DHT22;75194;51.180;5.972;2024-02-23T12:50:36;8.20;63.60
83142;DHT22;75194;51.180;5.972;2024-02-23T12:53:06;8.20;63.50
83142;DHT22;75194;51.180;5.972;2024-02-23T12:55:32;8.30;63.40
83142;DHT22;75194;51.180;5.972;2024-02-23T12:57:57;8.30;62.70
83142;DHT22;75194;51.180;5.972;2024-02-23T13:00:23;8.30;62.70
83142;DHT22;75194;51.180;5.972;2024-02-23T13:02:48;8.30;62.40
83142;DHT22;75194;51.180;5.972;2024-02-23T13:05:14;8.30;62.60
83142;DHT22;75194;51.180;5.972;2024-02-23T13:07:41;8.30;62.30
83142;DHT22;75194;51.180;5.972;2024-02-23T13:10:08;8.30;62.40
83142;DHT22;75194;51.180;5.972;2024-02-23T13:12:43;8.30;61.80
83142;DHT22;75194;51.180;5.972;2024-02-23T13:15:08;8.30;62.20
83142;DHT22;75194;51.180;5.972;2024-02-23T13:17:34;8.40;62.30
83142;DHT22;75194;51.180;5.972;2024-02-23T13:19:59;8.50;61.80
83142;DHT22;75194;51.180;5.972;2024-02-23T13:22:25;8.40;61.50
83142;DHT22;75194;51.180;5.972;2024-02-23T13:24:51;8.50;61.40
83142;DHT22;75194;51.180;5.972;2024-02-23T13:27:19;8.50;61.90
83142;DHT22;75194;51.180;5.972;2024-02-23T13:29:45;8.60;62.40
83142;DHT22;75194;51.180;5.972;2024-02-23T13:35:07;8.50;61.80
83142;DHT22;75194;51.180;5.972;2024-02-23T13:37:34;8.60;61.40
83142;DHT22;75194;51.180;5.972;2024-02-23T13:40:00;8.60;61.20
83142;DHT22;75194;51.180;5.972;2024-02-23T13:42:26;8.80;61.80
83142;DHT22;75194;51.180;5.972;2024-02-23T13:44:52;8.80;61.20
83142;DHT22;75194;51.180;5.972;2024-02-23T13:47:17;8.80;61.30
83142;DHT22;75194;51.180;5.972;2024-02-23T13:49:43;8.70;60.70
83142;DHT22;75194;51.180;5.972;2024-02-23T13:52:09;8.80;60.80
83142;DHT22;75194;51.180;5.972;2024-02-23T13:54:34;8.80;60.10
83142;DHT22;75194;51.180;5.972;2024-02-23T13:57:00;8.80;60.60
83142;DHT22;75194;51.180;5.972;2024-02-23T13:59:26;8.80;60.60
83142;DHT22;75194;51.180;5.972;2024-02-23T14:01:52;8.70;61.00
83142;DHT22;75194;51.180;5.972;2024-02-23T14:04:18;8.70;61.20
83142;DHT22;75194;51.180;5.972;2024-02-23T14:06:44;8.70;60.20
83142;DHT22;75194;51.180;5.972;2024-02-23T14:09:09;8.60;60.50
83142;DHT22;75194;51.180;5.972;2024-02-23T14:11:35;8.60;60.00
83142;DHT22;75194;51.180;5.972;2024-02-23T14:14:01;8.60;59.90
83142;DHT22;75194;51.180;5.972;2024-02-23T14:16:28;8.60;59.80
83142;DHT22;75194;51.180;5.972;2024-02-23T14:18:54;8.70;60.80
83142;DHT22;75194;51.180;5.972;2024-02-23T14:21:20;8.70;61.30
83142;DHT22;75194;51.180;5.972;2024-02-23T14:23:48;8.60;60.80
83142;DHT22;75194;51.180;5.972;2024-02-23T14:26:13;8.70;60.90
83142;DHT22;75194;51.180;5.972;2024-02-23T14:28:39;8.70;61.30
83142;DHT22;75194;51.180;5.972;2024-02-23T14:31:05;8.70;61.10
83142;DHT22;75194;51.180;5.972;2024-02-23T14:33:31;8.70;60.80
83142;DHT22;75194;51.180;5.972;2024-02-23T14:35:57;8.80;61.40
83142;DHT22;75194;51.180;5.972;2024-02-23T14:38:23;8.80;61.20
83142;DHT22;75194;51.180;5.972;2024-02-23T14:40:48;8.90;60.80
83142;DHT22;75194;51.180;5.972;2024-02-23T14:43:14;8.80;60.30
83142;DHT22;75194;51.180;5.972;2024-02-23T14:45:40;8.70;60.50
83142;DHT22;75194;51.180;5.972;2024-02-23T14:48:07;8.90;59.80
83142;DHT22;75194;51.180;5.972;2024-02-23T14:50:32;9.00;59.50
83142;DHT22;75194;51.180;5.972;2024-02-23T14:52:58;9.00;59.00
83142;DHT22;75194;51.180;5.972;2024-02-23T14:55:24;9.00;59.10
83142;DHT22;75194;51.180;5.972;2024-02-23T14:57:49;8.90;59.50
83142;DHT22;75194;51.180;5.972;2024-02-23T15:00:15;8.80;59.80
83142;DHT22;75194;51.180;5.972;2024-02-23T15:02:41;8.80;59.90
83142;DHT22;75194;51.180;5.972;2024-02-23T15:05:07;8.80;59.80
83142;DHT22;75194;51.180;5.972;2024-02-23T15:07:33;8.70;60.60
83142;DHT22;75194;51.180;5.972;2024-02-23T15:10:00;8.70;60.80
83142;DHT22;75194;51.180;5.972;2024-02-23T15:12:31;8.70;61.30
83142;DHT22;75194;51.180;5.972;2024-02-23T15:14:57;8.70;61.70
83142;DHT22;75194;51.180;5.972;2024-02-23T15:17:23;8.70;61.90
83142;DHT22;75194;51.180;5.972;2024-02-23T15:19:48;8.50;62.70
83142;DHT22;75194;51.180;5.972;2024-02-23T15:22:14;8.60;63.40
83142;DHT22;75194;51.180;5.972;2024-02-23T15:24:44;8.60;63.70
83142;DHT22;75194;51.180;5.972;2024-02-23T15:27:15;8.60;62.80
83142;DHT22;75194;51.180;5.972;2024-02-23T15:29:41;8.50;62.90
83142;DHT22;75194;51.180;5.972;2024-02-23T15:32:07;8.50;63.00
83142;DHT22;75194;51.180;5.972;2024-02-23T15:34:32;8.50;62.80
83142;DHT22;75194;51.180;5.972;2024-02-23T15:36:58;8.60;62.50
83142;DHT22;75194;51.180;5.972;2024-02-23T15:39:24;8.60;62.90
83142;DHT22;75194;51.180;5.972;2024-02-23T15:41:49;8.60;62.80
83142;DHT22;75194;51.180;5.972;2024-02-23T15:44:22;8.60;62.70
83142;DHT22;75194;51.180;5.972;2024-02-23T15:46:47;8.70;61.90
83142;DHT22;75194;51.180;5.972;2024-02-23T15:49:13;8.60;61.00
83142;DHT22;75194;51.180;5.972;2024-02-23T15:51:39;8.60;61.10
83142;DHT22;75194;51.180;5.972;2024-02-23T15:54:05;8.50;61.20
83142;DHT22;75194;51.180;5.972;2024-02-23T15:56:31;8.50;61.10
83142;DHT22;75194;51.180;5.972;2024-02-23T15:58:57;8.60;61.00
83142;DHT22;75194;51.180;5.972;2024-02-23T16:01:23;8.50;61.60
83142;DHT22;75194;51.180;5.972;2024-02-23T16:03:48;8.50;61.70
83142;DHT22;75194;51.180;5.972;2024-02-23T16:06:14;8.50;60.60
83142;DHT22;75194;51.180;5.972;2024-02-23T16:08:45;8.50;60.80
83142;DHT22;75194;51.180;5.972;2024-02-23T16:11:12;8.50;61.10
83142;DHT22;75194;51.180;5.972;2024-02-23T16:13:38;8.40;60.90
83142;DHT22;75194;51.180;5.972;2024-02-23T16:16:05;8.50;61.50
83142;DHT22;75194;51.180;5.972;2024-02-23T16:18:31;8.40;60.60
83142;DHT22;75194;51.180;5.972;2024-02-23T16:20:58;8.50;60.60
83142;DHT22;75194;51.180;5.972;2024-02-23T16:23:24;8.50;60.80
83142;DHT22;75194;51.180;5.972;2024-02-23T16:25:50;8.50;60.70